sensor_id;sensor_type;location;lat;lon;timestamp;P1;durP1;ratioP1;P2;durP2;ratioP2
54845;SDS011;53889;50.084;8.646;2023-03-12T00:00:11;13.60;;;6.82;;
54845;SDS011;53889;50.084;8.646;2023-03-12T00:02:38;21.73;;;9.95;;
54845;SDS011;53889;50.084;8.646;2023-03-12T00:05:06;16.55;;;7.78;;
54845;SDS011;53889;50.084;8.646;2023-03-12T00:07:34;15.85;;;7.10;;
54845;SDS011;53889;50.084;8.646;2023-03-12T00:10:02;16.45;;;7.30;;
54845;SDS011;53889;50.084;8.646;2023-03-12T00:12:29;15.27;;;7.40;;
54845;SDS011;53889;50.084;8.646;2023-03-12T00:14:56;13.60;;;6.82;;
54845;SDS011;53889;50.084;8.646;2023-03-12T00:17:23;20.05;;;7.80;;
54845;SDS011;53889;50.084;8.646;2023-03-12T00:19:50;12.75;;;6.72;;
54845;SDS011;53889;50.084;8.646;2023-03-12T00:22:17;16.05;;;7.55;;
54845;SDS011;53889;50.084;8.646;2023-03-12T00:24:50;12.57;;;6.35;;
54845;SDS011;53889;50.084;8.646;2023-03-12T00:27:18;14.65;;;6.85;;
54845;SDS011;53889;50.084;8.646;2023-03-12T00:29:45;15.13;;;7.43;;
54845;SDS011;53889;50.084;8.646;2023-03-12T00:32:12;14.77;;;7.25;;
54845;SDS011;53889;50.084;8.646;2023-03-12T00:34:38;14.32;;;7.45;;
54845;SDS011;53889;50.084;8.646;2023-03-12T00:37:05;15.20;;;6.93;;
54845;SDS011;53889;50.084;8.646;2023-03-12T00:39:33;12.43;;;6.90;;
54845;SDS011;53889;50.084;8.646;2023-03-12T00:42:01;12.48;;;6.78;;
54845;SDS011;53889;50.084;8.646;2023-03-12T00:44:29;12.20;;;7.22;;
54845;SDS011;53889;50.084;8.646;2023-03-12T00:46:55;12.35;;;7.15;;
54845;SDS011;53889;50.084;8.646;2023-03-12T00:49:22;11.77;;;6.30;;
54845;SDS011;53889;50.084;8.646;2023-03-12T00:51:49;12.77;;;7.20;;
54845;SDS011;53889;50.084;8.646;2023-03-12T00:54:15;14.85;;;7.15;;
54845;SDS011;53889;50.084;8.646;2023-03-12T00:56:43;10.38;;;6.55;;
54845;SDS011;53889;50.084;8.646;2023-03-12T00:59:12;12.80;;;6.47;;
54845;SDS011;53889;50.084;8.646;2023-03-12T01:01:39;12.75;;;6.30;;
54845;SDS011;53889;50.084;8.646;2023-03-12T01:04:07;12.23;;;6.43;;
54845;SDS011;53889;50.084;8.646;2023-03-12T01:06:34;12.30;;;6.00;;
54845;SDS011;53889;50.084;8.646;2023-03-12T01:09:01;12.88;;;6.15;;
54845;SDS011;53889;50.084;8.646;2023-03-12T01:11:29;13.77;;;6.15;;
54845;SDS011;53889;50.084;8.646;2023-03-12T01:13:56;10.70;;;6.00;;
54845;SDS011;53889;50.084;8.646;2023-03-12T01:16:25;12.07;;;6.40;;
54845;SDS011;53889;50.084;8.646;2023-03-12T01:18:54;10.55;;;6.35;;
54845;SDS011;53889;50.084;8.646;2023-03-12T01:21:20;11.75;;;6.72;;
54845;SDS011;53889;50.084;8.646;2023-03-12T01:23:47;13.25;;;7.03;;
54845;SDS011;53889;50.084;8.646;2023-03-12T01:26:14;15.15;;;8.13;;
54845;SDS011;53889;50.084;8.646;2023-03-12T01:28:41;14.93;;;8.07;;
54845;SDS011;53889;50.084;8.646;2023-03-12T01:31:09;18.80;;;9.25;;
54845;SDS011;53889;50.084;8.646;2023-03-12T01:33:38;18.30;;;8.80;;
54845;SDS011;53889;50.084;8.646;2023-03-12T01:36:12;16.67;;;8.18;;
54845;SDS011;53889;50.084;8.646;2023-03-12T01:38:42;17.80;;;7.90;;
54845;SDS011;53889;50.084;8.646;2023-03-12T01:41:09;15.38;;;7.72;;
54845;SDS011;53889;50.084;8.646;2023-03-12T01:43:36;15.32;;;7.45;;
54845;SDS011;53889;50.084;8.646;2023-03-12T01:46:06;12.52;;;7.10;;
54845;SDS011;53889;50.084;8.646;2023-03-12T01:48:47;13.45;;;6.35;;
54845;SDS011;53889;50.084;8.646;2023-03-12T01:51:18;11.87;;;6.70;;
54845;SDS011;53889;50.084;8.646;2023-03-12T01:53:48;11.07;;;6.43;;
54845;SDS011;53889;50.084;8.646;2023-03-12T01:56:18;14.63;;;7.10;;
54845;SDS011;53889;50.084;8.646;2023-03-12T01:58:48;14.90;;;7.30;;
54845;SDS011;53889;50.084;8.646;2023-03-12T02:01:18;11.30;;;6.50;;
54845;SDS011;53889;50.084;8.646;2023-03-12T02:03:48;12.98;;;6.22;;
54845;SDS011;53889;50.084;8.646;2023-03-12T02:06:21;10.18;;;6.20;;
54845;SDS011;53889;50.084;8.646;2023-03-12T02:08:51;11.05;;;5.78;;
54845;SDS011;53889;50.084;8.646;2023-03-12T02:11:19;11.27;;;6.10;;
54845;SDS011;53889;50.084;8.646;2023-03-12T02:13:45;14.50;;;6.15;;
54845;SDS011;53889;50.084;8.646;2023-03-12T02:16:12;11.52;;;5.95;;
54845;SDS011;53889;50.084;8.646;2023-03-12T02:18:39;12.73;;;6.18;;
54845;SDS011;53889;50.084;8.646;2023-03-12T02:21:09;12.70;;;6.57;;
54845;SDS011;53889;50.084;8.646;2023-03-12T02:23:41;11.40;;;6.03;;
54845;SDS011;53889;50.084;8.646;2023-03-12T02:26:16;13.20;;;6.45;;
54845;SDS011;53889;50.084;8.646;2023-03-12T02:28:44;14.18;;;7.03;;
54845;SDS011;53889;50.084;8.646;2023-03-12T02:31:11;17.05;;;7.50;;
54845;SDS011;53889;50.084;8.646;2023-03-12T02:33:40;14.15;;;7.30;;
54845;SDS011;53889;50.084;8.646;2023-03-12T02:36:07;13.07;;;6.47;;
54845;SDS011;53889;50.084;8.646;2023-03-12T02:38:35;12.57;;;6.88;;
54845;SDS011;53889;50.084;8.646;2023-03-12T02:41:05;11.43;;;6.88;;
54845;SDS011;53889;50.084;8.646;2023-03-12T02:43:38;14.85;;;6.72;;
54845;SDS011;53889;50.084;8.646;2023-03-12T02:46:08;13.40;;;6.65;;
54845;SDS011;53889;50.084;8.646;2023-03-12T02:48:35;14.20;;;6.57;;
54845;SDS011;53889;50.084;8.646;2023-03-12T02:51:02;13.73;;;5.95;;
54845;SDS011;53889;50.084;8.646;2023-03-12T02:53:29;10.40;;;5.60;;
54845;SDS011;53889;50.084;8.646;2023-03-12T02:55:56;14.23;;;6.50;;
54845;SDS011;53889;50.084;8.646;2023-03-12T02:58:23;9.88;;;6.05;;
54845;SDS011;53889;50.084;8.646;2023-03-12T03:00:51;9.40;;;5.55;;
54845;SDS011;53889;50.084;8.646;2023-03-12T03:03:18;14.52;;;5.65;;
54845;SDS011;53889;50.084;8.646;2023-03-12T03:05:44;9.80;;;5.45;;
54845;SDS011;53889;50.084;8.646;2023-03-12T03:08:11;9.82;;;5.18;;
54845;SDS011;53889;50.084;8.646;2023-03-12T03:10:38;10.40;;;5.63;;
54845;SDS011;53889;50.084;8.646;2023-03-12T03:13:05;13.10;;;5.50;;
54845;SDS011;53889;50.084;8.646;2023-03-12T03:15:32;12.15;;;5.10;;
54845;SDS011;53889;50.084;8.646;2023-03-12T03:18:00;11.15;;;5.20;;
54845;SDS011;53889;50.084;8.646;2023-03-12T03:20:28;9.90;;;5.13;;
54845;SDS011;53889;50.084;8.646;2023-03-12T03:22:55;10.98;;;5.43;;
54845;SDS011;53889;50.084;8.646;2023-03-12T03:25:22;11.30;;;5.50;;
54845;SDS011;53889;50.084;8.646;2023-03-12T03:27:49;8.45;;;5.22;;
54845;SDS011;53889;50.084;8.646;2023-03-12T03:30:16;9.70;;;4.78;;
54845;SDS011;53889;50.084;8.646;2023-03-12T03:32:47;11.68;;;5.22;;
54845;SDS011;53889;50.084;8.646;2023-03-12T03:35:16;13.88;;;5.50;;
54845;SDS011;53889;50.084;8.646;2023-03-12T03:37:43;9.38;;;5.07;;
54845;SDS011;53889;50.084;8.646;2023-03-12T03:40:11;9.77;;;5.50;;
54845;SDS011;53889;50.084;8.646;2023-03-12T03:42:38;10.18;;;5.10;;
54845;SDS011;53889;50.084;8.646;2023-03-12T03:45:07;9.50;;;5.10;;
54845;SDS011;53889;50.084;8.646;2023-03-12T03:47:35;8.60;;;5.30;;
54845;SDS011;53889;50.084;8.646;2023-03-12T03:50:03;9.90;;;5.05;;
54845;SDS011;53889;50.084;8.646;2023-03-12T03:52:32;9.52;;;4.82;;
54845;SDS011;53889;50.084;8.646;2023-03-12T03:54:59;8.70;;;4.70;;
54845;SDS011;53889;50.084;8.646;2023-03-12T03:57:26;10.25;;;4.47;;
54845;SDS011;53889;50.084;8.646;2023-03-12T03:59:54;9.18;;;4.78;;
54845;SDS011;53889;50.084;8.646;2023-03-12T04:02:23;9.52;;;4.95;;
54845;SDS011;53889;50.084;8.646;2023-03-12T04:04:50;10.35;;;5.00;;
54845;SDS011;53889;50.084;8.646;2023-03-12T04:07:17;9.70;;;4.70;;
54845;SDS011;53889;50.084;8.646;2023-03-12T04:09:47;9.65;;;4.82;;
54845;SDS011;53889;50.084;8.646;2023-03-12T04:12:15;8.25;;;4.22;;
54845;SDS011;53889;50.084;8.646;2023-03-12T04:14:42;10.25;;;4.65;;
54845;SDS011;53889;50.084;8.646;2023-03-12T04:17:09;11.40;;;5.82;;
54845;SDS011;53889;50.084;8.646;2023-03-12T04:19:36;10.10;;;5.07;;
54845;SDS011;53889;50.084;8.646;2023-03-12T04:22:04;12.02;;;4.82;;
54845;SDS011;53889;50.084;8.646;2023-03-12T04:24:31;10.95;;;4.93;;
54845;SDS011;53889;50.084;8.646;2023-03-12T04:26:59;8.75;;;4.82;;
54845;SDS011;53889;50.084;8.646;2023-03-12T04:29:26;9.10;;;4.78;;
54845;SDS011;53889;50.084;8.646;2023-03-12T04:31:54;10.07;;;5.00;;
54845;SDS011;53889;50.084;8.646;2023-03-12T04:34:21;8.57;;;4.72;;
54845;SDS011;53889;50.084;8.646;2023-03-12T04:36:50;7.38;;;4.93;;
54845;SDS011;53889;50.084;8.646;2023-03-12T04:39:17;9.15;;;4.60;;
54845;SDS011;53889;50.084;8.646;2023-03-12T04:41:45;8.52;;;4.70;;
54845;SDS011;53889;50.084;8.646;2023-03-12T04:44:15;11.35;;;5.47;;
54845;SDS011;53889;50.084;8.646;2023-03-12T04:46:42;11.88;;;5.40;;
54845;SDS011;53889;50.084;8.646;2023-03-12T04:49:13;11.27;;;5.43;;
54845;SDS011;53889;50.084;8.646;2023-03-12T04:51:41;9.43;;;5.05;;
54845;SDS011;53889;50.084;8.646;2023-03-12T04:54:07;11.80;;;5.80;;
54845;SDS011;53889;50.084;8.646;2023-03-12T04:56:36;10.15;;;5.75;;
54845;SDS011;53889;50.084;8.646;2023-03-12T04:59:03;10.70;;;6.20;;
54845;SDS011;53889;50.084;8.646;2023-03-12T05:01:33;9.80;;;5.50;;
54845;SDS011;53889;50.084;8.646;2023-03-12T05:04:05;11.93;;;5.95;;
54845;SDS011;53889;50.084;8.646;2023-03-12T05:06:34;11.80;;;6.20;;
54845;SDS011;53889;50.084;8.646;2023-03-12T05:09:01;13.43;;;6.80;;
54845;SDS011;53889;50.084;8.646;2023-03-12T05:11:28;12.93;;;5.85;;
54845;SDS011;53889;50.084;8.646;2023-03-12T05:13:55;11.55;;;6.30;;
54845;SDS011;53889;50.084;8.646;2023-03-12T05:16:22;10.52;;;6.07;;
54845;SDS011;53889;50.084;8.646;2023-03-12T05:18:50;11.48;;;6.13;;
54845;SDS011;53889;50.084;8.646;2023-03-12T05:21:18;13.20;;;5.85;;
54845;SDS011;53889;50.084;8.646;2023-03-12T05:23:48;12.52;;;6.20;;
54845;SDS011;53889;50.084;8.646;2023-03-12T05:26:16;10.82;;;5.50;;
54845;SDS011;53889;50.084;8.646;2023-03-12T05:28:44;10.93;;;5.60;;
54845;SDS011;53889;50.084;8.646;2023-03-12T05:31:11;10.32;;;5.50;;
54845;SDS011;53889;50.084;8.646;2023-03-12T05:33:39;10.02;;;5.97;;
54845;SDS011;53889;50.084;8.646;2023-03-12T05:36:08;9.32;;;5.38;;
54845;SDS011;53889;50.084;8.646;2023-03-12T05:38:36;11.27;;;5.93;;
54845;SDS011;53889;50.084;8.646;2023-03-12T05:41:03;10.65;;;5.47;;
54845;SDS011;53889;50.084;8.646;2023-03-12T05:43:33;9.20;;;5.45;;
54845;SDS011;53889;50.084;8.646;2023-03-12T05:46:01;10.95;;;5.97;;
54845;SDS011;53889;50.084;8.646;2023-03-12T05:48:29;9.80;;;5.50;;
54845;SDS011;53889;50.084;8.646;2023-03-12T05:50:56;10.88;;;5.32;;
54845;SDS011;53889;50.084;8.646;2023-03-12T05:53:24;9.65;;;5.28;;
54845;SDS011;53889;50.084;8.646;2023-03-12T05:55:52;8.70;;;5.35;;
54845;SDS011;53889;50.084;8.646;2023-03-12T05:58:19;8.27;;;4.97;;
54845;SDS011;53889;50.084;8.646;2023-03-12T06:00:46;10.50;;;5.85;;
54845;SDS011;53889;50.084;8.646;2023-03-12T06:03:13;10.80;;;6.00;;
54845;SDS011;53889;50.084;8.646;2023-03-12T06:05:40;10.23;;;5.47;;
54845;SDS011;53889;50.084;8.646;2023-03-12T06:08:09;13.00;;;5.88;;
54845;SDS011;53889;50.084;8.646;2023-03-12T06:10:37;8.98;;;4.90;;
54845;SDS011;53889;50.084;8.646;2023-03-12T06:13:05;10.88;;;5.68;;
54845;SDS011;53889;50.084;8.646;2023-03-12T06:15:33;10.15;;;5.70;;
54845;SDS011;53889;50.084;8.646;2023-03-12T06:18:01;10.75;;;5.45;;
54845;SDS011;53889;50.084;8.646;2023-03-12T06:20:28;10.45;;;5.25;;
54845;SDS011;53889;50.084;8.646;2023-03-12T06:22:55;7.97;;;5.13;;
54845;SDS011;53889;50.084;8.646;2023-03-12T06:25:21;9.05;;;5.10;;
54845;SDS011;53889;50.084;8.646;2023-03-12T06:27:49;8.13;;;5.05;;
54845;SDS011;53889;50.084;8.646;2023-03-12T06:30:16;10.82;;;5.20;;
54845;SDS011;53889;50.084;8.646;2023-03-12T06:32:43;9.35;;;4.88;;
54845;SDS011;53889;50.084;8.646;2023-03-12T06:35:10;9.48;;;4.90;;
54845;SDS011;53889;50.084;8.646;2023-03-12T06:37:37;10.20;;;5.10;;
54845;SDS011;53889;50.084;8.646;2023-03-12T06:40:04;9.18;;;5.30;;
54845;SDS011;53889;50.084;8.646;2023-03-12T06:42:34;9.95;;;5.57;;
54845;SDS011;53889;50.084;8.646;2023-03-12T06:45:03;10.88;;;5.65;;
54845;SDS011;53889;50.084;8.646;2023-03-12T06:47:30;11.45;;;6.07;;
54845;SDS011;53889;50.084;8.646;2023-03-12T06:49:57;11.60;;;6.18;;
54845;SDS011;53889;50.084;8.646;2023-03-12T06:52:24;10.07;;;5.68;;
54845;SDS011;53889;50.084;8.646;2023-03-12T06:54:51;10.95;;;5.40;;
54845;SDS011;53889;50.084;8.646;2023-03-12T06:57:17;9.93;;;5.50;;
54845;SDS011;53889;50.084;8.646;2023-03-12T06:59:44;7.85;;;5.10;;
54845;SDS011;53889;50.084;8.646;2023-03-12T07:02:12;8.88;;;5.43;;
54845;SDS011;53889;50.084;8.646;2023-03-12T07:04:39;10.70;;;5.70;;
54845;SDS011;53889;50.084;8.646;2023-03-12T07:07:05;9.45;;;5.88;;
54845;SDS011;53889;50.084;8.646;2023-03-12T07:09:32;10.65;;;5.28;;
54845;SDS011;53889;50.084;8.646;2023-03-12T07:11:59;10.50;;;5.45;;
54845;SDS011;53889;50.084;8.646;2023-03-12T07:14:28;9.10;;;5.38;;
54845;SDS011;53889;50.084;8.646;2023-03-12T07:16:54;12.15;;;5.60;;
54845;SDS011;53889;50.084;8.646;2023-03-12T07:19:23;9.82;;;5.95;;
54845;SDS011;53889;50.084;8.646;2023-03-12T07:21:50;9.48;;;5.10;;
54845;SDS011;53889;50.084;8.646;2023-03-12T07:24:17;11.32;;;5.65;;
54845;SDS011;53889;50.084;8.646;2023-03-12T07:26:43;10.40;;;5.18;;
54845;SDS011;53889;50.084;8.646;2023-03-12T07:29:10;9.48;;;5.60;;
54845;SDS011;53889;50.084;8.646;2023-03-12T07:31:37;10.73;;;5.15;;
54845;SDS011;53889;50.084;8.646;2023-03-12T07:34:03;10.27;;;5.78;;
54845;SDS011;53889;50.084;8.646;2023-03-12T07:36:31;8.45;;;5.22;;
54845;SDS011;53889;50.084;8.646;2023-03-12T07:38:58;9.93;;;4.65;;
54845;SDS011;53889;50.084;8.646;2023-03-12T07:41:24;10.52;;;4.75;;
54845;SDS011;53889;50.084;8.646;2023-03-12T07:43:51;8.90;;;4.75;;
54845;SDS011;53889;50.084;8.646;2023-03-12T07:46:18;8.57;;;4.80;;
54845;SDS011;53889;50.084;8.646;2023-03-12T07:48:44;8.68;;;4.53;;
54845;SDS011;53889;50.084;8.646;2023-03-12T07:51:11;10.43;;;4.60;;
54845;SDS011;53889;50.084;8.646;2023-03-12T07:53:39;8.32;;;5.10;;
54845;SDS011;53889;50.084;8.646;2023-03-12T07:56:06;7.80;;;4.50;;
54845;SDS011;53889;50.084;8.646;2023-03-12T07:58:33;8.93;;;4.30;;
54845;SDS011;53889;50.084;8.646;2023-03-12T08:01:00;7.63;;;4.40;;
54845;SDS011;53889;50.084;8.646;2023-03-12T08:03:27;11.57;;;5.07;;
54845;SDS011;53889;50.084;8.646;2023-03-12T08:05:55;11.57;;;4.78;;
54845;SDS011;53889;50.084;8.646;2023-03-12T08:08:23;6.93;;;4.22;;
54845;SDS011;53889;50.084;8.646;2023-03-12T08:10:51;9.60;;;4.72;;
54845;SDS011;53889;50.084;8.646;2023-03-12T08:13:18;8.68;;;4.35;;
54845;SDS011;53889;50.084;8.646;2023-03-12T08:15:47;8.23;;;5.30;;
54845;SDS011;53889;50.084;8.646;2023-03-12T08:18:14;8.43;;;4.32;;
54845;SDS011;53889;50.084;8.646;2023-03-12T08:20:41;11.27;;;5.63;;
54845;SDS011;53889;50.084;8.646;2023-03-12T08:23:07;9.93;;;5.07;;
54845;SDS011;53889;50.084;8.646;2023-03-12T08:25:34;9.55;;;5.20;;
54845;SDS011;53889;50.084;8.646;2023-03-12T08:28:03;13.02;;;6.03;;
54845;SDS011;53889;50.084;8.646;2023-03-12T08:30:30;10.38;;;6.03;;
54845;SDS011;53889;50.084;8.646;2023-03-12T08:32:57;14.15;;;6.40;;
54845;SDS011;53889;50.084;8.646;2023-03-12T08:35:23;12.95;;;6.70;;
54845;SDS011;53889;50.084;8.646;2023-03-12T08:37:50;12.48;;;7.03;;
54845;SDS011;53889;50.084;8.646;2023-03-12T08:40:16;12.80;;;7.68;;
54845;SDS011;53889;50.084;8.646;2023-03-12T08:42:43;12.00;;;7.32;;
54845;SDS011;53889;50.084;8.646;2023-03-12T08:45:12;14.73;;;8.55;;
54845;SDS011;53889;50.084;8.646;2023-03-12T08:47:40;19.55;;;9.82;;
54845;SDS011;53889;50.084;8.646;2023-03-12T08:50:08;13.82;;;8.70;;
54845;SDS011;53889;50.084;8.646;2023-03-12T08:52:36;15.02;;;8.75;;
54845;SDS011;53889;50.084;8.646;2023-03-12T08:55:03;15.63;;;8.30;;
54845;SDS011;53889;50.084;8.646;2023-03-12T08:57:31;17.55;;;10.00;;
54845;SDS011;53889;50.084;8.646;2023-03-12T08:59:57;12.75;;;8.32;;
54845;SDS011;53889;50.084;8.646;2023-03-12T09:02:25;16.25;;;10.02;;
54845;SDS011;53889;50.084;8.646;2023-03-12T09:04:52;14.30;;;8.88;;
54845;SDS011;53889;50.084;8.646;2023-03-12T09:07:19;18.67;;;10.88;;
54845;SDS011;53889;50.084;8.646;2023-03-12T09:09:46;20.48;;;11.95;;
54845;SDS011;53889;50.084;8.646;2023-03-12T09:12:13;15.88;;;9.98;;
54845;SDS011;53889;50.084;8.646;2023-03-12T09:14:40;21.48;;;12.23;;
54845;SDS011;53889;50.084;8.646;2023-03-12T09:17:06;20.95;;;12.70;;
54845;SDS011;53889;50.084;8.646;2023-03-12T09:19:34;20.33;;;12.77;;
54845;SDS011;53889;50.084;8.646;2023-03-12T09:22:01;27.63;;;16.55;;
54845;SDS011;53889;50.084;8.646;2023-03-12T09:24:28;24.60;;;14.00;;
54845;SDS011;53889;50.084;8.646;2023-03-12T09:26:54;25.63;;;15.73;;
54845;SDS011;53889;50.084;8.646;2023-03-12T09:29:21;23.90;;;14.10;;
54845;SDS011;53889;50.084;8.646;2023-03-12T09:31:48;24.90;;;13.70;;
54845;SDS011;53889;50.084;8.646;2023-03-12T09:34:15;23.77;;;14.68;;
54845;SDS011;53889;50.084;8.646;2023-03-12T09:36:43;24.35;;;15.02;;
54845;SDS011;53889;50.084;8.646;2023-03-12T09:39:10;24.13;;;14.63;;
54845;SDS011;53889;50.084;8.646;2023-03-12T09:41:38;20.85;;;12.93;;
54845;SDS011;53889;50.084;8.646;2023-03-12T09:44:09;23.52;;;13.60;;
54845;SDS011;53889;50.084;8.646;2023-03-12T09:46:42;27.98;;;16.02;;
54845;SDS011;53889;50.084;8.646;2023-03-12T09:49:14;27.73;;;16.13;;
54845;SDS011;53889;50.084;8.646;2023-03-12T09:51:47;30.80;;;15.98;;
54845;SDS011;53889;50.084;8.646;2023-03-12T09:54:20;30.27;;;16.35;;
54845;SDS011;53889;50.084;8.646;2023-03-12T09:56:53;29.95;;;17.67;;
54845;SDS011;53889;50.084;8.646;2023-03-12T09:59:23;27.00;;;16.27;;
54845;SDS011;53889;50.084;8.646;2023-03-12T10:01:50;26.33;;;14.93;;
54845;SDS011;53889;50.084;8.646;2023-03-12T10:04:26;31.65;;;17.60;;
54845;SDS011;53889;50.084;8.646;2023-03-12T10:07:03;31.08;;;17.73;;
54845;SDS011;53889;50.084;8.646;2023-03-12T10:09:43;34.53;;;17.27;;
54845;SDS011;53889;50.084;8.646;2023-03-12T10:12:29;30.95;;;16.70;;
54845;SDS011;53889;50.084;8.646;2023-03-12T10:15:10;33.22;;;18.67;;
54845;SDS011;53889;50.084;8.646;2023-03-12T10:17:46;35.67;;;19.55;;
54845;SDS011;53889;50.084;8.646;2023-03-12T10:20:32;31.13;;;17.80;;
54845;SDS011;53889;50.084;8.646;2023-03-12T10:23:20;34.35;;;19.27;;
54845;SDS011;53889;50.084;8.646;2023-03-12T10:25:55;38.92;;;21.63;;
54845;SDS011;53889;50.084;8.646;2023-03-12T10:28:26;34.35;;;19.75;;
54845;SDS011;53889;50.084;8.646;2023-03-12T10:31:00;32.03;;;19.13;;
54845;SDS011;53889;50.084;8.646;2023-03-12T10:33:34;34.15;;;19.48;;
54845;SDS011;53889;50.084;8.646;2023-03-12T10:36:09;35.17;;;19.75;;
54845;SDS011;53889;50.084;8.646;2023-03-12T10:38:41;33.35;;;19.17;;
54845;SDS011;53889;50.084;8.646;2023-03-12T10:41:15;39.25;;;20.92;;
54845;SDS011;53889;50.084;8.646;2023-03-12T10:43:44;41.28;;;23.00;;
54845;SDS011;53889;50.084;8.646;2023-03-12T10:49:22;34.75;;;19.65;;
54845;SDS011;53889;50.084;8.646;2023-03-12T10:51:54;38.35;;;21.40;;
54845;SDS011;53889;50.084;8.646;2023-03-12T10:54:26;32.20;;;19.35;;
54845;SDS011;53889;50.084;8.646;2023-03-12T10:56:55;34.63;;;20.67;;
54845;SDS011;53889;50.084;8.646;2023-03-12T10:59:22;31.50;;;19.20;;
54845;SDS011;53889;50.084;8.646;2023-03-12T11:01:53;36.63;;;20.83;;
54845;SDS011;53889;50.084;8.646;2023-03-12T11:04:21;30.80;;;19.23;;
54845;SDS011;53889;50.084;8.646;2023-03-12T11:07:15;34.28;;;19.95;;
54845;SDS011;53889;50.084;8.646;2023-03-12T11:09:51;36.00;;;20.75;;
54845;SDS011;53889;50.084;8.646;2023-03-12T11:12:38;37.17;;;20.40;;
54845;SDS011;53889;50.084;8.646;2023-03-12T11:21:11;33.35;;;19.40;;
54845;SDS011;53889;50.084;8.646;2023-03-12T11:23:40;37.00;;;21.10;;
54845;SDS011;53889;50.084;8.646;2023-03-12T11:26:12;32.97;;;19.85;;
54845;SDS011;53889;50.084;8.646;2023-03-12T11:28:43;32.20;;;20.00;;
54845;SDS011;53889;50.084;8.646;2023-03-12T11:31:18;35.80;;;19.85;;
54845;SDS011;53889;50.084;8.646;2023-03-12T11:33:50;33.60;;;20.48;;
54845;SDS011;53889;50.084;8.646;2023-03-12T11:36:21;34.97;;;20.15;;
54845;SDS011;53889;50.084;8.646;2023-03-12T11:39:01;33.42;;;20.10;;
54845;SDS011;53889;50.084;8.646;2023-03-12T11:41:37;32.72;;;20.38;;
54845;SDS011;53889;50.084;8.646;2023-03-12T11:44:17;43.42;;;25.95;;
54845;SDS011;53889;50.084;8.646;2023-03-12T11:46:55;33.25;;;21.10;;
54845;SDS011;53889;50.084;8.646;2023-03-12T11:49:40;30.13;;;18.27;;
54845;SDS011;53889;50.084;8.646;2023-03-12T11:52:20;28.42;;;19.10;;
54845;SDS011;53889;50.084;8.646;2023-03-12T11:55:09;28.05;;;18.27;;
54845;SDS011;53889;50.084;8.646;2023-03-12T11:57:47;30.10;;;19.25;;
54845;SDS011;53889;50.084;8.646;2023-03-12T12:00:24;26.67;;;16.85;;
54845;SDS011;53889;50.084;8.646;2023-03-12T12:03:13;28.00;;;17.77;;
54845;SDS011;53889;50.084;8.646;2023-03-12T12:06:00;29.85;;;18.25;;
54845;SDS011;53889;50.084;8.646;2023-03-12T12:08:41;27.08;;;18.92;;
54845;SDS011;53889;50.084;8.646;2023-03-12T12:11:17;28.65;;;18.77;;
54845;SDS011;53889;50.084;8.646;2023-03-12T12:13:51;29.25;;;18.05;;
54845;SDS011;53889;50.084;8.646;2023-03-12T12:19:26;29.80;;;19.45;;
54845;SDS011;53889;50.084;8.646;2023-03-12T12:22:07;26.40;;;18.10;;
54845;SDS011;53889;50.084;8.646;2023-03-12T12:24:53;27.52;;;18.38;;
54845;SDS011;53889;50.084;8.646;2023-03-12T12:27:37;23.50;;;16.60;;
54845;SDS011;53889;50.084;8.646;2023-03-12T12:30:14;26.35;;;16.70;;
54845;SDS011;53889;50.084;8.646;2023-03-12T12:32:53;23.55;;;16.38;;
54845;SDS011;53889;50.084;8.646;2023-03-12T12:35:28;26.88;;;16.10;;
54845;SDS011;53889;50.084;8.646;2023-03-12T12:38:01;22.33;;;16.20;;
54845;SDS011;53889;50.084;8.646;2023-03-12T12:40:33;23.88;;;16.02;;
54845;SDS011;53889;50.084;8.646;2023-03-12T12:43:04;24.40;;;17.08;;
54845;SDS011;53889;50.084;8.646;2023-03-12T12:45:40;28.08;;;16.38;;
54845;SDS011;53889;50.084;8.646;2023-03-12T12:48:11;23.20;;;15.40;;
54845;SDS011;53889;50.084;8.646;2023-03-12T12:50:41;20.23;;;14.45;;
54845;SDS011;53889;50.084;8.646;2023-03-12T12:53:13;23.45;;;14.88;;
54845;SDS011;53889;50.084;8.646;2023-03-12T12:55:48;23.15;;;14.52;;
54845;SDS011;53889;50.084;8.646;2023-03-12T12:58:25;20.77;;;14.80;;
54845;SDS011;53889;50.084;8.646;2023-03-12T13:01:07;19.83;;;14.30;;
54845;SDS011;53889;50.084;8.646;2023-03-12T13:03:35;22.35;;;14.13;;
54845;SDS011;53889;50.084;8.646;2023-03-12T13:06:03;22.05;;;15.73;;
54845;SDS011;53889;50.084;8.646;2023-03-12T13:08:32;20.67;;;14.85;;
54845;SDS011;53889;50.084;8.646;2023-03-12T13:11:03;19.85;;;15.23;;
54845;SDS011;53889;50.084;8.646;2023-03-12T13:13:31;21.30;;;14.73;;
54845;SDS011;53889;50.084;8.646;2023-03-12T13:16:19;20.10;;;14.15;;
54845;SDS011;53889;50.084;8.646;2023-03-12T13:18:56;18.70;;;14.02;;
54845;SDS011;53889;50.084;8.646;2023-03-12T13:21:25;20.00;;;14.75;;
54845;SDS011;53889;50.084;8.646;2023-03-12T13:26:50;32.90;;;24.25;;
54845;SDS011;53889;50.084;8.646;2023-03-12T13:29:21;16.73;;;13.23;;
54845;SDS011;53889;50.084;8.646;2023-03-12T13:32:02;18.42;;;13.63;;
54845;SDS011;53889;50.084;8.646;2023-03-12T13:34:33;15.73;;;12.40;;
54845;SDS011;53889;50.084;8.646;2023-03-12T13:37:17;16.90;;;12.77;;
54845;SDS011;53889;50.084;8.646;2023-03-12T13:39:58;15.63;;;11.20;;
54845;SDS011;53889;50.084;8.646;2023-03-12T13:42:35;15.00;;;11.35;;
54845;SDS011;53889;50.084;8.646;2023-03-12T13:45:24;15.93;;;12.27;;
54845;SDS011;53889;50.084;8.646;2023-03-12T13:47:54;18.95;;;11.77;;
54845;SDS011;53889;50.084;8.646;2023-03-12T13:50:25;14.40;;;11.50;;
54845;SDS011;53889;50.084;8.646;2023-03-12T13:52:58;17.67;;;12.10;;
54845;SDS011;53889;50.084;8.646;2023-03-12T13:55:28;16.27;;;12.15;;
54845;SDS011;53889;50.084;8.646;2023-03-12T13:57:56;18.13;;;12.52;;
54845;SDS011;53889;50.084;8.646;2023-03-12T14:00:26;15.32;;;11.60;;
54845;SDS011;53889;50.084;8.646;2023-03-12T14:02:58;18.17;;;12.23;;
54845;SDS011;53889;50.084;8.646;2023-03-12T14:05:27;16.48;;;12.52;;
54845;SDS011;53889;50.084;8.646;2023-03-12T14:08:13;16.58;;;12.07;;
54845;SDS011;53889;50.084;8.646;2023-03-12T14:11:02;16.33;;;12.18;;
54845;SDS011;53889;50.084;8.646;2023-03-12T14:19:19;15.70;;;10.90;;
54845;SDS011;53889;50.084;8.646;2023-03-12T14:21:50;16.17;;;11.52;;
54845;SDS011;53889;50.084;8.646;2023-03-12T14:24:21;15.82;;;11.23;;
54845;SDS011;53889;50.084;8.646;2023-03-12T14:26:51;15.10;;;11.18;;
54845;SDS011;53889;50.084;8.646;2023-03-12T14:29:19;18.00;;;10.98;;
54845;SDS011;53889;50.084;8.646;2023-03-12T14:31:50;15.60;;;10.70;;
54845;SDS011;53889;50.084;8.646;2023-03-12T14:34:21;13.90;;;10.45;;
54845;SDS011;53889;50.084;8.646;2023-03-12T14:36:54;14.95;;;10.93;;
54845;SDS011;53889;50.084;8.646;2023-03-12T14:39:27;16.23;;;11.18;;
54845;SDS011;53889;50.084;8.646;2023-03-12T14:41:57;15.68;;;10.82;;
54845;SDS011;53889;50.084;8.646;2023-03-12T14:44:26;14.23;;;10.70;;
54845;SDS011;53889;50.084;8.646;2023-03-12T14:46:55;19.67;;;11.10;;
54845;SDS011;53889;50.084;8.646;2023-03-12T14:49:23;18.55;;;11.15;;
54845;SDS011;53889;50.084;8.646;2023-03-12T14:51:50;15.82;;;10.35;;
54845;SDS011;53889;50.084;8.646;2023-03-12T14:54:18;16.67;;;12.73;;
54845;SDS011;53889;50.084;8.646;2023-03-12T14:56:48;17.10;;;12.38;;
54845;SDS011;53889;50.084;8.646;2023-03-12T14:59:23;20.77;;;15.88;;
54845;SDS011;53889;50.084;8.646;2023-03-12T15:01:52;20.67;;;14.70;;
54845;SDS011;53889;50.084;8.646;2023-03-12T15:04:26;18.73;;;13.90;;
54845;SDS011;53889;50.084;8.646;2023-03-12T15:06:55;17.88;;;14.05;;